sensor_id;sensor_type;location;lat;lon;timestamp;pressure;altitude;pressure_sealevel;temperature;humidity
25238;BME280;13185;50.872;5.306;2023-03-15T00:01:31;100967.75;;;2.61;100.00
25238;BME280;13185;50.872;5.306;2023-03-15T00:03:57;100964.16;;;2.64;100.00
25238;BME280;13185;50.872;5.306;2023-03-15T00:06:23;100975.66;;;2.63;100.00
25238;BME280;13185;50.872;5.306;2023-03-15T00:08:48;100973.81;;;2.65;100.00
25238;BME280;13185;50.872;5.306;2023-03-15T00:11:15;100977.28;;;2.67;100.00
25238;BME280;13185;50.872;5.306;2023-03-15T00:13:41;100982.47;;;2.70;100.00
25238;BME280;13185;50.872;5.306;2023-03-15T00:16:08;100978.03;;;2.72;100.00
25238;BME280;13185;50.872;5.306;2023-03-15T00:18:33;100986.72;;;2.75;100.00
25238;BME280;13185;50.872;5.306;2023-03-15T00:20:59;100991.00;;;2.79;100.00
25238;BME280;13185;50.872;5.306;2023-03-15T00:23:25;100990.06;;;2.82;100.00
25238;BME280;13185;50.872;5.306;2023-03-15T00:25:51;100979.50;;;2.80;100.00
25238;BME280;13185;50.872;5.306;2023-03-15T00:28:17;100983.00;;;2.81;100.00
25238;BME280;13185;50.872;5.306;2023-03-15T00:30:44;100995.50;;;2.77;100.00
25238;BME280;13185;50.872;5.306;2023-03-15T00:33:11;100993.88;;;2.73;100.00
25238;BME280;13185;50.872;5.306;2023-03-15T00:35:40;100984.41;;;2.65;100.00
25238;BME280;13185;50.872;5.306;2023-03-15T00:38:07;101029.69;;;2.55;100.00
25238;BME280;13185;50.872;5.306;2023-03-15T00:40:32;101038.72;;;2.48;100.00
25238;BME280;13185;50.872;5.306;2023-03-15T00:42:58;101061.06;;;2.38;100.00
25238;BME280;13185;50.872;5.306;2023-03-15T00:45:23;101051.72;;;2.25;100.00
25238;BME280;13185;50.872;5.306;2023-03-15T00:47:53;101041.31;;;2.19;100.00
25238;BME280;13185;50.872;5.306;2023-03-15T00:50:21;101041.44;;;2.14;100.00
25238;BME280;13185;50.872;5.306;2023-03-15T00:52:47;101035.34;;;2.12;100.00
25238;BME280;13185;50.872;5.306;2023-03-15T00:55:16;101033.66;;;2.08;100.00
25238;BME280;13185;50.872;5.306;2023-03-15T00:57:43;101036.34;;;2.07;100.00
25238;BME280;13185;50.872;5.306;2023-03-15T01:00:14;101051.34;;;2.06;100.00
25238;BME280;13185;50.872;5.306;2023-03-15T01:02:40;101050.53;;;2.04;100.00
25238;BME280;13185;50.872;5.306;2023-03-15T01:05:08;101041.06;;;1.95;100.00
25238;BME280;13185;50.872;5.306;2023-03-15T01:07:34;101044.78;;;1.88;100.00
25238;BME280;13185;50.872;5.306;2023-03-15T01:10:05;101041.38;;;1.83;100.00
25238;BME280;13185;50.872;5.306;2023-03-15T01:12:31;101040.59;;;1.80;100.00
25238;BME280;13185;50.872;5.306;2023-03-15T01:14:58;101055.53;;;1.82;100.00
25238;BME280;13185;50.872;5.306;2023-03-15T01:17:24;101054.69;;;1.80;100.00
25238;BME280;13185;50.872;5.306;2023-03-15T01:19:49;101057.34;;;1.80;100.00
25238;BME280;13185;50.872;5.306;2023-03-15T01:22:18;101049.38;;;1.82;100.00
25238;BME280;13185;50.872;5.306;2023-03-15T01:24:44;101046.63;;;1.85;100.00
25238;BME280;13185;50.872;5.306;2023-03-15T01:27:10;101041.38;;;1.83;100.00
25238;BME280;13185;50.872;5.306;2023-03-15T01:29:36;101049.28;;;1.85;100.00
25238;BME280;13185;50.872;5.306;2023-03-15T01:32:02;101043.06;;;1.86;100.00
25238;BME280;13185;50.872;5.306;2023-03-15T01:34:28;101051.88;;;1.86;100.00
25238;BME280;13185;50.872;5.306;2023-03-15T01:36:53;101048.41;;;1.84;100.00
25238;BME280;13185;50.872;5.306;2023-03-15T01:39:24;101052.84;;;1.84;100.00
25238;BME280;13185;50.872;5.306;2023-03-15T01:41:49;101065.97;;;1.87;100.00
25238;BME280;13185;50.872;5.306;2023-03-15T01:44:16;101065.09;;;1.86;100.00
25238;BME280;13185;50.872;5.306;2023-03-15T01:46:44;101059.81;;;1.86;100.00
25238;BME280;13185;50.872;5.306;2023-03-15T01:49:31;101055.38;;;1.88;100.00
25238;BME280;13185;50.872;5.306;2023-03-15T01:52:05;101053.59;;;1.89;100.00
25238;BME280;13185;50.872;5.306;2023-03-15T01:59:55;101045.53;;;1.93;100.00
25238;BME280;13185;50.872;5.306;2023-03-15T02:02:23;101047.25;;;1.94;100.00
25238;BME280;13185;50.872;5.306;2023-03-15T02:05:01;101048.09;;;1.96;100.00
25238;BME280;13185;50.872;5.306;2023-03-15T02:07:29;101050.69;;;1.98;100.00
25238;BME280;13185;50.872;5.306;2023-03-15T02:10:03;101042.72;;;1.99;100.00
25238;BME280;13185;50.872;5.306;2023-03-15T02:12:37;101041.72;;;2.03;100.00
25238;BME280;13185;50.872;5.306;2023-03-15T02:15:06;101045.19;;;2.06;100.00
25238;BME280;13185;50.872;5.306;2023-03-15T02:17:36;101036.34;;;2.07;100.00
25238;BME280;13185;50.872;5.306;2023-03-15T02:20:10;101034.50;;;2.10;100.00
25238;BME280;13185;50.872;5.306;2023-03-15T02:22:57;101028.34;;;2.10;100.00
25238;BME280;13185;50.872;5.306;2023-03-15T02:27:56;101040.81;;;2.05;100.00
25238;BME280;13185;50.872;5.306;2023-03-15T02:30:22;101049.56;;;2.07;100.00
25238;BME280;13185;50.872;5.306;2023-03-15T02:32:47;101044.38;;;2.03;100.00
25238;BME280;13185;50.872;5.306;2023-03-15T02:35:25;101033.78;;;2.03;100.00
25238;BME280;13185;50.872;5.306;2023-03-15T02:37:51;101033.84;;;2.02;100.00
25238;BME280;13185;50.872;5.306;2023-03-15T02:40:20;101040.00;;;2.02;100.00
25238;BME280;13185;50.872;5.306;2023-03-15T02:42:48;101045.25;;;2.04;100.00
25238;BME280;13185;50.872;5.306;2023-03-15T02:45:16;101043.50;;;2.03;100.00
25238;BME280;13185;50.872;5.306;2023-03-15T02:47:43;101038.22;;;2.03;100.00
25238;BME280;13185;50.872;5.306;2023-03-15T02:50:09;101058.50;;;2.02;100.00
25238;BME280;13185;50.872;5.306;2023-03-15T02:52:35;101048.94;;;1.97;100.00
25238;BME280;13185;50.872;5.306;2023-03-15T02:55:01;101048.94;;;1.97;100.00
25238;BME280;13185;50.872;5.306;2023-03-15T02:57:27;101039.31;;;1.94;100.00
25238;BME280;13185;50.872;5.306;2023-03-15T02:59:54;101050.81;;;1.93;100.00
25238;BME280;13185;50.872;5.306;2023-03-15T03:02:21;101056.09;;;1.93;100.00
25238;BME280;13185;50.872;5.306;2023-03-15T03:04:46;101048.09;;;1.96;100.00
25238;BME280;13185;50.872;5.306;2023-03-15T03:07:12;101051.59;;;1.97;100.00
25238;BME280;13185;50.872;5.306;2023-03-15T03:09:52;101063.13;;;1.94;100.00
25238;BME280;13185;50.872;5.306;2023-03-15T03:12:19;101063.09;;;1.96;100.00
25238;BME280;13185;50.872;5.306;2023-03-15T03:14:45;101072.69;;;2.00;100.00
25238;BME280;13185;50.872;5.306;2023-03-15T03:17:15;101080.59;;;2.01;100.00
25238;BME280;13185;50.872;5.306;2023-03-15T03:19:41;101081.47;;;2.02;100.00
25238;BME280;13185;50.872;5.306;2023-03-15T03:22:08;101085.00;;;2.01;100.00
25238;BME280;13185;50.872;5.306;2023-03-15T03:24:33;101089.41;;;2.02;100.00
25238;BME280;13185;50.872;5.306;2023-03-15T03:26:59;101089.34;;;2.03;100.00
25238;BME280;13185;50.872;5.306;2023-03-15T03:29:28;101099.03;;;2.05;100.00
25238;BME280;13185;50.872;5.306;2023-03-15T03:31:57;101100.72;;;2.07;100.00
25238;BME280;13185;50.872;5.306;2023-03-15T03:34:23;101116.53;;;2.10;100.00
25238;BME280;13185;50.872;5.306;2023-03-15T03:36:49;101112.00;;;2.14;100.00
25238;BME280;13185;50.872;5.306;2023-03-15T03:39:21;101117.22;;;2.17;100.00
25238;BME280;13185;50.872;5.306;2023-03-15T03:41:47;101119.81;;;2.18;100.00
25238;BME280;13185;50.872;5.306;2023-03-15T03:44:12;101123.28;;;2.22;100.00
25238;BME280;13185;50.872;5.306;2023-03-15T03:46:39;101118.84;;;2.22;100.00
25238;BME280;13185;50.872;5.306;2023-03-15T03:49:05;101132.91;;;2.24;100.00
25238;BME280;13185;50.872;5.306;2023-03-15T03:51:31;101129.31;;;2.27;100.00
25238;BME280;13185;50.872;5.306;2023-03-15T03:53:58;101124.00;;;2.27;100.00
25238;BME280;13185;50.872;5.306;2023-03-15T03:56:24;101119.53;;;2.29;100.00
25238;BME280;13185;50.872;5.306;2023-03-15T03:58:50;101126.59;;;2.30;100.00
25238;BME280;13185;50.872;5.306;2023-03-15T04:01:20;101139.78;;;2.31;100.00
25238;BME280;13185;50.872;5.306;2023-03-15T04:03:49;101140.59;;;2.34;100.00
25238;BME280;13185;50.872;5.306;2023-03-15T04:06:18;101142.28;;;2.36;100.00
25238;BME280;13185;50.872;5.306;2023-03-15T04:08:45;101149.31;;;2.37;100.00
25238;BME280;13185;50.872;5.306;2023-03-15T04:11:15;101165.22;;;2.37;100.00
25238;BME280;13185;50.872;5.306;2023-03-15T04:13:47;101177.53;;;2.38;100.00
25238;BME280;13185;50.872;5.306;2023-03-15T04:16:13;101185.41;;;2.40;100.00
25238;BME280;13185;50.872;5.306;2023-03-15T04:18:52;101175.75;;;2.39;100.00
25238;BME280;13185;50.872;5.306;2023-03-15T04:21:20;101178.44;;;2.37;100.00
25238;BME280;13185;50.872;5.306;2023-03-15T04:23:48;101178.63;;;2.31;100.00
25238;BME280;13185;50.872;5.306;2023-03-15T04:26:36;101185.69;;;2.29;100.00
25238;BME280;13185;50.872;5.306;2023-03-15T04:29:20;101188.53;;;2.23;100.00
25238;BME280;13185;50.872;5.306;2023-03-15T04:32:07;101178.06;;;2.17;100.00
25238;BME280;13185;50.872;5.306;2023-03-15T04:34:52;101179.84;;;2.16;100.00
25238;BME280;13185;50.872;5.306;2023-03-15T04:37:38;101184.31;;;2.14;100.00
25238;BME280;13185;50.872;5.306;2023-03-15T04:40:18;101193.94;;;2.17;100.00
25238;BME280;13185;50.872;5.306;2023-03-15T04:42:56;101188.63;;;2.18;100.00
25238;BME280;13185;50.872;5.306;2023-03-15T04:45:33;101195.63;;;2.21;100.00
25238;BME280;13185;50.872;5.306;2023-03-15T04:48:16;101193.81;;;2.23;100.00
25238;BME280;13185;50.872;5.306;2023-03-15T04:51:06;101192.84;;;2.25;100.00
25238;BME280;13185;50.872;5.306;2023-03-15T04:53:43;101197.19;;;2.28;100.00
25238;BME280;13185;50.872;5.306;2023-03-15T04:56:27;101198.06;;;2.30;100.00
25238;BME280;13185;50.872;5.306;2023-03-15T04:59:15;101207.72;;;2.31;100.00
25238;BME280;13185;50.872;5.306;2023-03-15T05:01:50;101207.72;;;2.31;100.00
25238;BME280;13185;50.872;5.306;2023-03-15T05:04:30;101220.91;;;2.33;100.00
25238;BME280;13185;50.872;5.306;2023-03-15T05:07:13;101234.94;;;2.36;100.00
25238;BME280;13185;50.872;5.306;2023-03-15T05:10:02;101231.47;;;2.34;100.00
25238;BME280;13185;50.872;5.306;2023-03-15T05:12:36;101228.03;;;2.29;100.00
25238;BME280;13185;50.872;5.306;2023-03-15T05:15:17;101226.31;;;2.29;100.00
25238;BME280;13185;50.872;5.306;2023-03-15T05:17:58;101226.31;;;2.28;100.00
25238;BME280;13185;50.872;5.306;2023-03-15T05:20:41;101225.53;;;2.24;100.00
25238;BME280;13185;50.872;5.306;2023-03-15T05:23:13;101228.25;;;2.21;100.00
25238;BME280;13185;50.872;5.306;2023-03-15T05:25:57;101234.47;;;2.19;100.00
25238;BME280;13185;50.872;5.306;2023-03-15T05:28:28;101252.16;;;2.17;100.00
25238;BME280;13185;50.872;5.306;2023-03-15T05:31:12;101249.66;;;2.12;100.00
25238;BME280;13185;50.872;5.306;2023-03-15T05:34:10;101247.09;;;2.09;100.00
25238;BME280;13185;50.872;5.306;2023-03-15T05:36:59;101253.28;;;2.07;100.00
25238;BME280;13185;50.872;5.306;2023-03-15T05:40:00;101256.09;;;2.00;100.00
25238;BME280;13185;50.872;5.306;2023-03-15T05:42:44;101259.63;;;2.01;100.00
25238;BME280;13185;50.872;5.306;2023-03-15T05:45:24;101272.88;;;1.98;100.00
25238;BME280;13185;50.872;5.306;2023-03-15T05:48:22;101273.84;;;1.95;100.00
25238;BME280;13185;50.872;5.306;2023-03-15T05:50:55;101278.25;;;1.95;100.00
25238;BME280;13185;50.872;5.306;2023-03-15T05:53:30;101281.72;;;1.98;100.00
25238;BME280;13185;50.872;5.306;2023-03-15T05:56:03;101280.78;;;2.01;100.00
25238;BME280;13185;50.872;5.306;2023-03-15T05:58:35;101282.50;;;2.02;100.00
25238;BME280;13185;50.872;5.306;2023-03-15T06:01:22;101286.94;;;2.01;100.00
25238;BME280;13185;50.872;5.306;2023-03-15T06:04:14;101276.47;;;1.95;100.00
25238;BME280;13185;50.872;5.306;2023-03-15T06:06:40;101277.38;;;1.94;100.00
25238;BME280;13185;50.872;5.306;2023-03-15T06:09:07;101287.13;;;1.92;100.00
25238;BME280;13185;50.872;5.306;2023-03-15T06:11:34;101280.13;;;1.91;100.00
25238;BME280;13185;50.872;5.306;2023-03-15T06:14:00;101281.88;;;1.91;100.00
25238;BME280;13185;50.872;5.306;2023-03-15T06:16:35;101287.22;;;1.89;100.00
25238;BME280;13185;50.872;5.306;2023-03-15T06:19:02;101290.81;;;1.85;100.00
25238;BME280;13185;50.872;5.306;2023-03-15T06:21:28;101297.00;;;1.84;100.00
25238;BME280;13185;50.872;5.306;2023-03-15T06:23:54;101303.25;;;1.82;100.00
25238;BME280;13185;50.872;5.306;2023-03-15T06:26:20;101303.28;;;1.80;100.00
25238;BME280;13185;50.872;5.306;2023-03-15T06:28:49;101308.59;;;1.79;100.00
25238;BME280;13185;50.872;5.306;2023-03-15T06:31:15;101302.41;;;1.80;100.00
25238;BME280;13185;50.872;5.306;2023-03-15T06:33:49;101318.25;;;1.81;100.00
25238;BME280;13185;50.872;5.306;2023-03-15T06:36:14;101322.69;;;1.79;100.00
25238;BME280;13185;50.872;5.306;2023-03-15T06:38:40;101332.38;;;1.80;100.00
25238;BME280;13185;50.872;5.306;2023-03-15T06:41:06;101328.81;;;1.81;100.00
25238;BME280;13185;50.872;5.306;2023-03-15T06:43:34;101333.22;;;1.82;100.00
25238;BME280;13185;50.872;5.306;2023-03-15T06:46:00;101341.13;;;1.82;100.00
25238;BME280;13185;50.872;5.306;2023-03-15T06:48:27;101339.25;;;1.87;100.00
25238;BME280;13185;50.872;5.306;2023-03-15T06:50:53;101343.63;;;1.90;100.00
25238;BME280;13185;50.872;5.306;2023-03-15T06:53:19;101351.53;;;1.91;100.00
25238;BME280;13185;50.872;5.306;2023-03-15T06:55:45;101347.09;;;1.92;100.00
25238;BME280;13185;50.872;5.306;2023-03-15T06:58:12;101347.94;;;1.94;100.00
25238;BME280;13185;50.872;5.306;2023-03-15T07:00:38;101347.00;;;1.96;100.00
25238;BME280;13185;50.872;5.306;2023-03-15T07:03:03;101339.03;;;1.98;100.00
25238;BME280;13185;50.872;5.306;2023-03-15T07:05:29;101350.47;;;2.00;100.00
25238;BME280;13185;50.872;5.306;2023-03-15T07:07:56;101360.94;;;2.05;100.00
25238;BME280;13185;50.872;5.306;2023-03-15T07:10:22;101356.44;;;2.10;100.00
25238;BME280;13185;50.872;5.306;2023-03-15T07:12:47;101367.72;;;2.16;100.00
25238;BME280;13185;50.872;5.306;2023-03-15T07:15:13;101368.56;;;2.20;100.00
25238;BME280;13185;50.872;5.306;2023-03-15T07:17:39;101375.47;;;2.25;100.00
25238;BME280;13185;50.872;5.306;2023-03-15T07:20:05;101378.00;;;2.31;100.00
25238;BME280;13185;50.872;5.306;2023-03-15T07:22:31;101390.19;;;2.37;100.00
25238;BME280;13185;50.872;5.306;2023-03-15T07:24:57;101390.03;;;2.45;100.00
25238;BME280;13185;50.872;5.306;2023-03-15T07:27:23;101405.75;;;2.52;100.00
25238;BME280;13185;50.872;5.306;2023-03-15T07:29:48;101402.94;;;2.58;100.00
25238;BME280;13185;50.872;5.306;2023-03-15T07:32:14;101401.16;;;2.60;100.00
25238;BME280;13185;50.872;5.306;2023-03-15T07:34:39;101400.25;;;2.62;100.00
25238;BME280;13185;50.872;5.306;2023-03-15T07:37:05;101402.81;;;2.65;100.00
25238;BME280;13185;50.872;5.306;2023-03-15T07:39:30;101416.03;;;2.66;100.00
25238;BME280;13185;50.872;5.306;2023-03-15T07:41:59;101415.97;;;2.68;100.00
25238;BME280;13185;50.872;5.306;2023-03-15T07:44:30;101421.19;;;2.71;100.00
25238;BME280;13185;50.872;5.306;2023-03-15T07:46:56;101426.47;;;2.72;100.00
25238;BME280;13185;50.872;5.306;2023-03-15T07:49:21;101428.13;;;2.76;100.00
25238;BME280;13185;50.872;5.306;2023-03-15T07:51:47;101431.56;;;2.81;100.00
25238;BME280;13185;50.872;5.306;2023-03-15T07:54:12;101441.19;;;2.85;100.00
25238;BME280;13185;50.872;5.306;2023-03-15T07:56:38;101452.50;;;2.92;100.00
25238;BME280;13185;50.872;5.306;2023-03-15T07:59:04;101458.47;;;3.00;100.00
25238;BME280;13185;50.872;5.306;2023-03-15T08:01:29;101459.16;;;3.08;100.00
25238;BME280;13185;50.872;5.306;2023-03-15T08:03:55;101468.63;;;3.18;100.00
25238;BME280;13185;50.872;5.306;2023-03-15T08:06:20;101464.88;;;3.27;100.00
25238;BME280;13185;50.872;5.306;2023-03-15T08:08:46;101474.44;;;3.34;100.00
25238;BME280;13185;50.872;5.306;2023-03-15T08:11:11;101475.13;;;3.41;100.00
25238;BME280;13185;50.872;5.306;2023-03-15T08:13:37;101483.00;;;3.45;100.00
25238;BME280;13185;50.872;5.306;2023-03-15T08:16:03;101486.44;;;3.49;100.00
25238;BME280;13185;50.872;5.306;2023-03-15T08:18:29;101489.06;;;3.49;100.00
25238;BME280;13185;50.872;5.306;2023-03-15T08:20:54;101491.78;;;3.47;100.00
25238;BME280;13185;50.872;5.306;2023-03-15T08:23:20;101496.25;;;3.45;100.00
25238;BME280;13185;50.872;5.306;2023-03-15T08:25:46;101503.25;;;3.48;100.00
25238;BME280;13185;50.872;5.306;2023-03-15T08:28:12;101498.72;;;3.52;100.00
25238;BME280;13185;50.872;5.306;2023-03-15T08:30:37;101503.03;;;3.57;100.00
25238;BME280;13185;50.872;5.306;2023-03-15T08:33:03;101501.94;;;3.64;100.00
25238;BME280;13185;50.872;5.306;2023-03-15T08:35:29;101498.06;;;3.78;100.00
25238;BME280;13185;50.872;5.306;2023-03-15T08:37:57;101500.38;;;3.90;100.00
25238;BME280;13185;50.872;5.306;2023-03-15T08:40:22;101505.59;;;3.93;100.00
25238;BME280;13185;50.872;5.306;2023-03-15T08:42:48;101511.72;;;3.95;100.00
25238;BME280;13185;50.872;5.306;2023-03-15T08:45:13;101512.31;;;4.06;100.00
25238;BME280;13185;50.872;5.306;2023-03-15T08:47:40;101515.47;;;4.20;100.00
25238;BME280;13185;50.872;5.306;2023-03-15T08:50:11;101515.22;;;4.29;100.00
25238;BME280;13185;50.872;5.306;2023-03-15T08:52:38;101522.06;;;4.37;100.00
25238;BME280;13185;50.872;5.306;2023-03-15T08:55:04;101520.28;;;4.39;100.00
25238;BME280;13185;50.872;5.306;2023-03-15T08:57:30;101523.81;;;4.38;100.00
25238;BME280;13185;50.872;5.306;2023-03-15T09:00:03;101528.31;;;4.35;100.00
25238;BME280;13185;50.872;5.306;2023-03-15T09:02:40;101530.84;;;4.40;100.00
25238;BME280;13185;50.872;5.306;2023-03-15T09:05:06;101526.53;;;4.36;100.00
25238;BME280;13185;50.872;5.306;2023-03-15T09:07:34;101532.59;;;4.41;100.00
25238;BME280;13185;50.872;5.306;2023-03-15T09:10:00;101529.84;;;4.44;100.00
25238;BME280;13185;50.872;5.306;2023-03-15T09:12:25;101534.97;;;4.50;100.00
25238;BME280;13185;50.872;5.306;2023-03-15T09:14:52;101531.31;;;4.54;100.00
25238;BME280;13185;50.872;5.306;2023-03-15T09:17:17;101526.91;;;4.53;100.00
25238;BME280;13185;50.872;5.306;2023-03-15T09:19:43;101531.47;;;4.50;100.00
25238;BME280;13185;50.872;5.306;2023-03-15T09:22:08;101538.56;;;4.48;100.00
25238;BME280;13185;50.872;5.306;2023-03-15T09:24:36;101545.72;;;4.46;100.00
25238;BME280;13185;50.872;5.306;2023-03-15T09:27:02;101543.97;;;4.45;100.00
25238;BME280;13185;50.872;5.306;2023-03-15T09:29:27;101541.22;;;4.48;100.00
25238;BME280;13185;50.872;5.306;2023-03-15T09:31:53;101539.44;;;4.50;100.00
25238;BME280;13185;50.872;5.306;2023-03-15T09:34:19;101546.28;;;4.57;100.00
25238;BME280;13185;50.872;5.306;2023-03-15T09:36:44;101549.63;;;4.63;100.00
25238;BME280;13185;50.872;5.306;2023-03-15T09:39:10;101544.88;;;4.75;100.00
25238;BME280;13185;50.872;5.306;2023-03-15T09:41:58;101543.63;;;4.86;100.00
25238;BME280;13185;50.872;5.306;2023-03-15T09:44:55;101551.16;;;5.02;100.00
25238;BME280;13185;50.872;5.306;2023-03-15T09:50:28;101538.06;;;5.24;97.45
25238;BME280;13185;50.872;5.306;2023-03-15T09:53:32;101547.47;;;5.34;95.72
25238;BME280;13185;50.872;5.306;2023-03-15T09:56:02;101556.28;;;5.36;95.01
25238;BME280;13185;50.872;5.306;2023-03-15T09:58:30;101557.09;;;5.38;94.72
25238;BME280;13185;50.872;5.306;2023-03-15T10:00:59;101558.94;;;5.36;94.01
25238;BME280;13185;50.872;5.306;2023-03-15T10:06:35;101555.66;;;5.28;92.79
25238;BME280;13185;50.872;5.306;2023-03-15T10:09:08;101547.00;;;5.21;92.38
25238;BME280;13185;50.872;5.306;2023-03-15T10:11:58;101546.28;;;5.16;91.64
25238;BME280;13185;50.872;5.306;2023-03-15T10:17:13;101553.31;;;5.17;90.83
25238;BME280;13185;50.872;5.306;2023-03-15T10:24:58;101541.47;;;5.27;89.67
25238;BME280;13185;50.872;5.306;2023-03-15T10:29:54;101537.50;;;5.40;88.10
25238;BME280;13185;50.872;5.306;2023-03-15T10:32:24;101539.00;;;5.49;87.85
25238;BME280;13185;50.872;5.306;2023-03-15T10:34:54;101543.31;;;5.53;86.59
25238;BME280;13185;50.872;5.306;2023-03-15T10:37:20;101543.25;;;5.55;86.08
25238;BME280;13185;50.872;5.306;2023-03-15T10:39:52;101547.72;;;5.54;85.19
25238;BME280;13185;50.872;5.306;2023-03-15T10:42:27;101551.31;;;5.51;84.50
25238;BME280;13185;50.872;5.306;2023-03-15T10:44:52;101553.72;;;5.59;84.99
25238;BME280;13185;50.872;5.306;2023-03-15T10:47:19;101554.34;;;5.67;84.89
25238;BME280;13185;50.872;5.306;2023-03-15T10:49:45;101562.16;;;5.72;84.97
25238;BME280;13185;50.872;5.306;2023-03-15T10:52:36;101572.75;;;5.75;84.20
25238;BME280;13185;50.872;5.306;2023-03-15T10:57:37;101567.97;;;5.85;83.30
25238;BME280;13185;50.872;5.306;2023-03-15T11:00:28;101575.78;;;5.91;83.65
25238;BME280;13185;50.872;5.306;2023-03-15T11:03:03;101568.59;;;5.93;83.14
25238;BME280;13185;50.872;5.306;2023-03-15T11:05:42;101581.78;;;5.97;83.33
25238;BME280;13185;50.872;5.306;2023-03-15T11:08:19;101587.91;;;5.99;82.33
25238;BME280;13185;50.872;5.306;2023-03-15T11:10:57;101590.56;;;5.99;82.10
25238;BME280;13185;50.872;5.306;2023-03-15T11:13:25;101590.38;;;6.05;82.21
25238;BME280;13185;50.872;5.306;2023-03-15T11:15:57;101593.66;;;6.12;82.42
25238;BME280;13185;50.872;5.306;2023-03-15T11:19:01;101582.81;;;6.18;80.66
25238;BME280;13185;50.872;5.306;2023-03-15T11:21:30;101594.94;;;6.27;81.16
25238;BME280;13185;50.872;5.306;2023-03-15T11:24:00;101596.25;;;6.40;83.28
25238;BME280;13185;50.872;5.306;2023-03-15T11:26:30;101595.91;;;6.49;82.30
25238;BME280;13185;50.872;5.306;2023-03-15T11:29:01;101602.81;;;6.55;81.72
25238;BME280;13185;50.872;5.306;2023-03-15T11:31:27;101605.53;;;6.53;80.53
25238;BME280;13185;50.872;5.306;2023-03-15T11:34:11;101610.41;;;6.65;78.97
25238;BME280;13185;50.872;5.306;2023-03-15T11:36:43;101608.06;;;6.81;79.37
25238;BME280;13185;50.872;5.306;2023-03-15T11:39:13;101610.13;;;6.97;78.63
25238;BME280;13185;50.872;5.306;2023-03-15T11:41:55;101605.25;;;7.08;76.77
25238;BME280;13185;50.872;5.306;2023-03-15T11:47:02;101610.75;;;7.27;76.54
25238;BME280;13185;50.872;5.306;2023-03-15T11:49:53;101598.94;;;7.34;75.56
25238;BME280;13185;50.872;5.306;2023-03-15T11:52:24;101597.75;;;7.41;74.21
25238;BME280;13185;50.872;5.306;2023-03-15T11:54:54;101597.44;;;7.48;73.70
25238;BME280;13185;50.872;5.306;2023-03-15T12:00:24;101602.28;;;7.61;73.53
25238;BME280;13185;50.872;5.306;2023-03-15T12:03:39;101604.34;;;7.76;73.71
25238;BME280;13185;50.872;5.306;2023-03-15T12:06:12;101597.47;;;7.91;72.29
25238;BME280;13185;50.872;5.306;2023-03-15T12:08:58;101583.56;;;8.04;70.72
25238;BME280;13185;50.872;5.306;2023-03-15T12:16:46;101570.78;;;8.31;69.22
25238;BME280;13185;50.872;5.306;2023-03-15T12:19:16;101567.97;;;8.36;68.45
25238;BME280;13185;50.872;5.306;2023-03-15T12:21:49;101564.13;;;8.42;67.69
25238;BME280;13185;50.872;5.306;2023-03-15T12:24:22;101569.44;;;8.62;68.07
25238;BME280;13185;50.872;5.306;2023-03-15T12:27:13;101567.03;;;8.76;68.83
25238;BME280;13185;50.872;5.306;2023-03-15T12:29:40;101570.63;;;8.94;67.83
25238;BME280;13185;50.872;5.306;2023-03-15T12:32:14;101565.81;;;9.02;66.40
25238;BME280;13185;50.872;5.306;2023-03-15T12:34:51;101565.53;;;9.08;64.46
25238;BME280;13185;50.872;5.306;2023-03-15T12:55:56;101560.69;;;8.98;55.48
25238;BME280;13185;50.872;5.306;2023-03-15T12:58:28;101568.19;;;8.89;56.71
25238;BME280;13185;50.872;5.306;2023-03-15T13:01:04;101553.94;;;8.89;56.64
25238;BME280;13185;50.872;5.306;2023-03-15T13:03:34;101559.94;;;8.94;56.46
25238;BME280;13185;50.872;5.306;2023-03-15T13:06:20;101558.72;;;9.01;57.21
25238;BME280;13185;50.872;5.306;2023-03-15T13:12:00;101552.63;;;9.16;57.62
25238;BME280;13185;50.872;5.306;2023-03-15T13:17:34;101559.28;;;9.26;56.57
25238;BME280;13185;50.872;5.306;2023-03-15T13:28:18;101556.56;;;9.81;56.31
25238;BME280;13185;50.872;5.306;2023-03-15T13:30:48;101554.34;;;9.90;55.67
25238;BME280;13185;50.872;5.306;2023-03-15T13:33:29;101552.06;;;9.99;55.65
25238;BME280;13185;50.872;5.306;2023-03-15T13:36:03;101547.28;;;10.06;55.98
25238;BME280;13185;50.872;5.306;2023-03-15T13:38:46;101552.25;;;10.13;54.37
25238;BME280;13185;50.872;5.306;2023-03-15T13:43:49;101554.59;;;10.02;51.56
25238;BME280;13185;50.872;5.306;2023-03-15T13:46:20;101559.03;;;10.03;50.72
25238;BME280;13185;50.872;5.306;2023-03-15T13:48:50;101558.56;;;10.12;51.91
25238;BME280;13185;50.872;5.306;2023-03-15T13:51:24;101554.91;;;10.31;52.69
25238;BME280;13185;50.872;5.306;2023-03-15T13:53:53;101550.50;;;10.30;51.24
25238;BME280;13185;50.872;5.306;2023-03-15T13:56:31;101544.91;;;10.34;52.54
25238;BME280;13185;50.872;5.306;2023-03-15T13:58:58;101558.06;;;10.39;52.57
25238;BME280;13185;50.872;5.306;2023-03-15T14:01:27;101557.84;;;10.44;51.40
25238;BME280;13185;50.872;5.306;2023-03-15T14:04:21;101557.94;;;10.42;51.31
25238;BME280;13185;50.872;5.306;2023-03-15T14:06:49;101555.59;;;10.52;53.44
25238;BME280;13185;50.872;5.306;2023-03-15T14:09:22;101562.63;;;10.54;53.96
25238;BME280;13185;50.872;5.306;2023-03-15T14:12:02;101563.31;;;10.58;53.56
25238;BME280;13185;50.872;5.306;2023-03-15T14:14:30;101562.78;;;10.51;52.61
25238;BME280;13185;50.872;5.306;2023-03-15T14:16:57;101559.69;;;10.59;54.02
25238;BME280;13185;50.872;5.306;2023-03-15T14:19:25;101554.16;;;10.62;52.78
25238;BME280;13185;50.872;5.306;2023-03-15T14:21:59;101560.81;;;10.55;52.77
25238;BME280;13185;50.872;5.306;2023-03-15T14:24:37;101567.72;;;10.43;52.31
25238;BME280;13185;50.872;5.306;2023-03-15T14:27:29;101562.75;;;10.35;52.81